Time;durP1;ratioP1;P1;durP2;ratioP2;P2;SDS_P1;SDS_P2;PMS_P1;PMS_P2;Temp;Humidity;BMP_temperature;BMP_pressure;BME280_temperature;BME280_humidity;BME280_pressure;Samples;Min_cycle;Max_cycle;Signal;HPM_P1;HPM_P2
2022/10/05 00:00:48;;;;;;;1.23;0.80;;;11.50;99.90;;;;;;5076129;28;20469;-79
2022/10/05 00:03:16;;;;;;;0.80;0.73;;;11.50;99.90;;;;;;5074937;28;20485;-79
2022/10/05 00:05:45;;;;;;;1.73;0.70;;;11.40;99.90;;;;;;5075019;28;20477;-79
2022/10/05 00:08:15;;;;;;;1.00;0.70;;;11.40;99.90;;;;;;5075205;28;20481;-78
2022/10/05 00:10:43;;;;;;;1.00;0.70;;;11.40;99.90;;;;;;5074939;28;20968;-79
2022/10/05 00:13:14;;;;;;;0.70;0.67;;;11.30;99.90;;;;;;5075202;28;20450;-78
2022/10/05 00:15:42;;;;;;;2.97;1.07;;;11.40;99.90;;;;;;5075039;28;20470;-79
2022/10/05 00:18:14;;;;;;;2.40;1.10;;;11.30;99.90;;;;;;5074815;28;20441;-79
2022/10/05 00:20:43;;;;;;;0.77;0.73;;;11.30;99.90;;;;;;5074765;28;20510;-79
2022/10/05 00:23:17;;;;;;;0.80;0.80;;;11.30;99.90;;;;;;5074703;28;20457;-79
2022/10/05 00:25:44;;;;;;;1.50;0.83;;;11.30;99.90;;;;;;5075013;28;20438;-79
2022/10/05 00:28:17;;;;;;;2.60;1.10;;;11.30;99.90;;;;;;5074539;28;20481;-79
2022/10/05 00:30:44;;;;;;;0.60;0.60;;;11.30;99.90;;;;;;5074592;28;20487;-79
2022/10/05 00:33:11;;;;;;;1.87;1.77;;;11.20;99.90;;;;;;5074796;28;20453;-78
2022/10/05 00:35:38;;;;;;;1.30;0.80;;;11.20;99.90;;;;;;5074376;28;20461;-79
2022/10/05 00:38:06;;;;;;;0.77;0.77;;;11.20;99.90;;;;;;5074654;28;20578;-79
2022/10/05 00:40:41;;;;;;;4.17;1.23;;;11.30;99.90;;;;;;5074629;28;20454;-79
2022/10/05 00:43:30;;;;;;;1.53;0.73;;;11.30;99.90;;;;;;5074657;28;20434;-78
2022/10/05 00:46:06;;;;;;;0.70;0.70;;;11.30;99.90;;;;;;5074274;28;20449;-81
2022/10/05 00:48:43;;;;;;;4.83;1.40;;;11.30;99.90;;;;;;5074448;28;20501;-81
2022/10/05 00:51:23;;;;;;;2.37;1.30;;;11.30;99.90;;;;;;5074188;28;20496;-81
2022/10/05 00:54:01;;;;;;;1.00;0.50;;;11.20;99.90;;;;;;5074020;28;20972;-81
2022/10/05 00:56:50;;;;;;;2.27;0.93;;;11.20;99.90;;;;;;5074369;28;20430;-81
2022/10/05 00:59:27;;;;;;;5.77;1.20;;;11.20;99.90;;;;;;5074321;28;20440;-80
2022/10/05 01:01:59;;;;;;;1.80;1.00;;;11.20;99.90;;;;;;5074235;28;20434;-80
2022/10/05 01:04:34;;;;;;;2.80;1.00;;;11.10;99.90;;;;;;5073665;28;20489;-81
2022/10/05 01:07:14;;;;;;;1.27;0.90;;;11.10;99.90;;;;;;5074184;28;20429;-80
2022/10/05 01:09:49;;;;;;;0.63;0.60;;;11.10;99.90;;;;;;5073811;28;20437;-81
2022/10/05 01:12:23;;;;;;;1.60;0.73;;;11.10;99.90;;;;;;5074045;28;20429;-81
2022/10/05 01:14:57;;;;;;;1.37;0.87;;;11.10;99.90;;;;;;5073651;28;20465;-81
2022/10/05 01:17:30;;;;;;;0.87;0.87;;;11.10;99.90;;;;;;5073676;28;20433;-81
2022/10/05 01:20:14;;;;;;;0.83;0.60;;;11.10;99.90;;;;;;5073949;28;20785;-81
2022/10/05 01:23:03;;;;;;;0.70;0.70;;;11.10;99.90;;;;;;5073604;28;20909;-80
2022/10/05 01:25:41;;;;;;;1.23;0.90;;;11.10;99.90;;;;;;5073795;28;20468;-81
2022/10/05 01:28:14;;;;;;;1.53;1.00;;;11.10;99.90;;;;;;5073468;28;20465;-81
2022/10/05 01:30:47;;;;;;;1.13;0.93;;;11.20;99.90;;;;;;5074071;28;20430;-80
2022/10/05 01:33:22;;;;;;;1.43;1.33;;;11.10;99.90;;;;;;5074303;28;20434;-81
2022/10/05 01:35:57;;;;;;;1.13;1.03;;;11.10;99.90;;;;;;5073429;28;20437;-81
2022/10/05 01:38:37;;;;;;;1.10;0.63;;;11.10;99.90;;;;;;5073687;28;20422;-81
2022/10/05 01:41:18;;;;;;;1.00;0.60;;;11.10;99.90;;;;;;5073319;28;20944;-81
2022/10/05 01:43:51;;;;;;;1.43;0.80;;;11.10;99.90;;;;;;5073521;28;20560;-81
2022/10/05 01:46:28;;;;;;;0.80;0.70;;;11.10;99.90;;;;;;5073555;28;20445;-81
2022/10/05 01:49:13;;;;;;;0.73;0.70;;;11.00;99.90;;;;;;5073184;28;20465;-81
2022/10/05 01:51:47;;;;;;;1.07;1.00;;;11.00;99.90;;;;;;5073202;28;20437;-81
2022/10/05 01:54:27;;;;;;;2.07;1.00;;;10.90;99.90;;;;;;5073412;28;20805;-81
2022/10/05 01:57:04;;;;;;;0.90;0.80;;;10.90;99.90;;;;;;5073442;28;20434;-81
2022/10/05 01:59:43;;;;;;;1.10;1.00;;;10.90;99.90;;;;;;5073109;28;20464;-81
2022/10/05 02:02:12;;;;;;;2.53;1.20;;;10.90;99.90;;;;;;5073416;28;20470;-81
2022/10/05 02:04:45;;;;;;;0.63;0.63;;;10.90;99.90;;;;;;5072898;28;20481;-81
2022/10/05 02:07:16;;;;;;;1.83;0.50;;;10.90;99.90;;;;;;5073372;28;20430;-81
2022/10/05 02:09:48;;;;;;;1.67;1.57;;;10.80;99.90;;;;;;5073257;28;20425;-81
2022/10/05 02:12:18;;;;;;;1.57;1.23;;;10.80;99.90;;;;;;5073338;28;20449;-81
2022/10/05 02:14:50;;;;;;;1.80;0.90;;;10.80;99.90;;;;;;5073222;28;20465;-80
2022/10/05 02:17:19;;;;;;;2.20;0.80;;;10.70;99.90;;;;;;5072987;28;20902;-81
2022/10/05 02:19:50;;;;;;;0.90;0.57;;;10.70;99.90;;;;;;5072821;28;20906;-81
2022/10/05 02:22:22;;;;;;;1.30;1.20;;;10.70;99.90;;;;;;5073218;28;20425;-81
2022/10/05 02:24:56;;;;;;;1.23;0.90;;;10.70;99.90;;;;;;5073147;28;20465;-81
2022/10/05 02:27:29;;;;;;;1.17;1.07;;;10.70;99.90;;;;;;5073182;28;20431;-81
2022/10/05 02:30:02;;;;;;;0.83;0.80;;;10.60;99.90;;;;;;5073008;28;20434;-81
2022/10/05 02:32:35;;;;;;;1.07;0.80;;;10.60;99.90;;;;;;5073247;28;20430;-81
2022/10/05 02:35:09;;;;;;;0.60;0.60;;;10.60;99.90;;;;;;5073060;28;20474;-81
2022/10/05 02:37:46;;;;;;;2.27;1.97;;;10.60;99.90;;;;;;5073110;28;20445;-81
2022/10/05 02:40:25;;;;;;;0.83;0.80;;;10.60;99.90;;;;;;5073013;28;20425;-81
2022/10/05 02:42:59;;;;;;;1.27;0.70;;;10.60;99.90;;;;;;5073042;28;20433;-81
2022/10/05 02:45:39;;;;;;;1.73;1.10;;;10.60;99.90;;;;;;5072907;28;20465;-81
2022/10/05 02:48:13;;;;;;;0.60;0.60;;;10.50;99.90;;;;;;5076754;28;20429;-80
2022/10/05 02:50:49;;;;;;;2.33;1.87;;;10.50;99.90;;;;;;5076812;28;20434;-81
2022/10/05 02:53:24;;;;;;;0.97;0.63;;;10.50;99.90;;;;;;5076733;28;20436;-81
2022/10/05 02:56:01;;;;;;;0.60;0.60;;;10.50;99.90;;;;;;5076716;28;20417;-81
2022/10/05 02:58:32;;;;;;;0.97;0.97;;;10.50;99.90;;;;;;5076588;28;20487;-81
2022/10/05 03:01:09;;;;;;;0.97;0.67;;;10.50;99.90;;;;;;5076313;28;20425;-80
2022/10/05 03:03:41;;;;;;;0.80;0.80;;;10.50;99.90;;;;;;5076002;28;20483;-81
2022/10/05 03:06:16;;;;;;;1.77;1.10;;;10.40;99.90;;;;;;5076196;28;20924;-81
2022/10/05 03:08:50;;;;;;;1.03;0.67;;;10.40;99.90;;;;;;5076474;28;20426;-81
2022/10/05 03:11:25;;;;;;;0.93;0.80;;;10.40;99.90;;;;;;5076412;28;20426;-80
2022/10/05 03:14:01;;;;;;;1.00;0.50;;;10.40;99.90;;;;;;5076855;28;20472;-81
2022/10/05 03:16:45;;;;;;;0.80;0.80;;;10.40;99.90;;;;;;5076314;28;20793;-81
2022/10/05 03:19:25;;;;;;;0.83;0.80;;;10.40;99.90;;;;;;5076208;28;20469;-80
2022/10/05 03:21:58;;;;;;;1.20;1.10;;;10.30;99.90;;;;;;5075910;28;20932;-81
2022/10/05 03:24:44;;;;;;;2.43;0.73;;;10.40;99.90;;;;;;5075757;28;21034;-81
2022/10/05 03:27:22;;;;;;;1.33;0.60;;;10.40;99.90;;;;;;5076110;28;20434;-81
2022/10/05 03:29:55;;;;;;;1.13;0.77;;;10.50;99.90;;;;;;5075772;28;20486;-81
2022/10/05 03:32:29;;;;;;;2.30;0.80;;;10.50;99.90;;;;;;5076035;28;20434;-80
2022/10/05 03:35:03;;;;;;;2.00;1.07;;;10.50;99.90;;;;;;5075894;28;20461;-81
2022/10/05 03:37:37;;;;;;;5.03;1.07;;;10.60;99.90;;;;;;5075955;28;20426;-81
2022/10/05 03:40:13;;;;;;;1.70;0.90;;;10.60;99.90;;;;;;5075835;28;20496;-81
2022/10/05 03:42:52;;;;;;;3.07;0.90;;;10.60;99.90;;;;;;5075846;28;20433;-81
2022/10/05 03:45:26;;;;;;;0.80;0.57;;;10.60;99.90;;;;;;5075680;28;20469;-81
2022/10/05 03:48:01;;;;;;;4.20;1.50;;;10.60;99.90;;;;;;5075425;28;20924;-81
2022/10/05 03:50:42;;;;;;;2.03;1.73;;;10.70;99.90;;;;;;5075704;28;20436;-80
2022/10/05 03:53:15;;;;;;;2.50;0.83;;;10.70;99.90;;;;;;5075624;28;20429;-81
2022/10/05 03:55:48;;;;;;;2.50;1.13;;;10.70;99.90;;;;;;5075301;28;20469;-86
2022/10/05 03:58:20;;;;;;;2.47;1.40;;;10.70;99.90;;;;;;5075225;28;20534;-85
2022/10/05 04:00:52;;;;;;;0.60;0.60;;;10.70;99.90;;;;;;5075539;28;20458;-86
2022/10/05 04:03:25;;;;;;;2.30;1.00;;;10.80;99.90;;;;;;5074857;28;20996;-85
2022/10/05 04:05:55;;;;;;;0.83;0.83;;;10.80;99.90;;;;;;5075505;28;20810;-86
2022/10/05 04:08:32;;;;;;;2.00;0.60;;;10.80;99.90;;;;;;5075450;28;20440;-86
2022/10/05 04:11:03;;;;;;;0.70;0.70;;;10.80;99.90;;;;;;5075466;28;20437;-86
2022/10/05 04:13:37;;;;;;;1.93;1.57;;;10.80;99.90;;;;;;5075242;28;20434;-86
2022/10/05 04:16:11;;;;;;;2.00;1.10;;;10.70;99.90;;;;;;5075404;28;20449;-86
2022/10/05 04:18:43;;;;;;;1.23;0.70;;;10.70;99.90;;;;;;5075277;28;20847;-86
2022/10/05 04:21:17;;;;;;;0.60;0.60;;;10.70;99.90;;;;;;5075180;28;20429;-85
2022/10/05 04:23:52;;;;;;;2.03;1.83;;;10.60;99.90;;;;;;5075014;28;20466;-86
2022/10/05 04:26:37;;;;;;;1.30;1.20;;;10.60;99.90;;;;;;5074740;28;20992;-86
2022/10/05 04:29:12;;;;;;;0.63;0.60;;;10.60;99.90;;;;;;5074945;28;20445;-85
2022/10/05 04:32:00;;;;;;;2.07;1.87;;;10.50;99.90;;;;;;5074762;28;20935;-86
2022/10/05 04:34:44;;;;;;;1.47;0.50;;;10.50;99.90;;;;;;5075048;28;20500;-84
2022/10/05 04:37:18;;;;;;;1.90;1.50;;;10.50;99.90;;;;;;5074851;28;20896;-85
2022/10/05 04:39:52;;;;;;;1.57;0.60;;;10.50;99.90;;;;;;5074393;28;20863;-85
2022/10/05 04:42:28;;;;;;;0.70;0.70;;;10.50;99.90;;;;;;5074434;28;20429;-84
2022/10/05 04:45:06;;;;;;;2.30;0.93;;;10.50;99.90;;;;;;5074591;28;20469;-85
2022/10/05 04:48:09;;;;;;;1.50;0.90;;;10.40;99.90;;;;;;5074590;28;20425;-84
2022/10/05 04:50:52;;;;;;;6.00;2.03;;;10.40;99.90;;;;;;5074527;28;20450;-85
2022/10/05 04:53:29;;;;;;;0.80;0.77;;;10.40;99.90;;;;;;5074367;28;20426;-85
2022/10/05 04:56:01;;;;;;;1.37;1.00;;;10.30;99.90;;;;;;5074135;28;20445;-77
2022/10/05 04:58:39;;;;;;;1.37;1.27;;;10.30;99.90;;;;;;5074278;28;20462;-77
2022/10/05 05:01:23;;;;;;;1.13;0.70;;;10.30;99.90;;;;;;5074292;28;20430;-77
2022/10/05 05:04:05;;;;;;;1.80;0.97;;;10.30;99.90;;;;;;5073857;28;20485;-77
2022/10/05 05:06:40;;;;;;;1.63;0.90;;;10.30;99.90;;;;;;5074237;28;20422;-77
2022/10/05 05:09:39;;;;;;;1.33;0.73;;;10.30;99.90;;;;;;5073177;28;20917;-77
2022/10/05 05:12:19;;;;;;;4.00;1.30;;;10.30;99.90;;;;;;5074650;28;20437;-77
2022/10/05 05:15:06;;;;;;;3.80;0.90;;;10.30;99.90;;;;;;5073642;28;20473;-77
2022/10/05 05:17:49;;;;;;;1.07;0.97;;;10.20;99.90;;;;;;5073760;28;20800;-77
2022/10/05 05:20:22;;;;;;;2.37;1.70;;;10.20;99.90;;;;;;5073845;28;20472;-77
2022/10/05 05:22:53;;;;;;;1.33;0.53;;;10.20;99.90;;;;;;5073897;28;20440;-77
2022/10/05 05:25:36;;;;;;;0.43;0.40;;;10.20;99.90;;;;;;5073763;28;20476;-77
2022/10/05 05:28:15;;;;;;;1.50;0.80;;;10.10;99.90;;;;;;5073530;28;20786;-77
2022/10/05 05:30:48;;;;;;;3.53;0.93;;;10.20;99.90;;;;;;5073789;28;20426;-77
2022/10/05 05:33:21;;;;;;;1.50;0.63;;;10.10;99.90;;;;;;5073409;28;20430;-77
2022/10/05 05:36:15;;;;;;;1.60;0.60;;;10.10;99.90;;;;;;5073728;28;20440;-77
2022/10/05 05:38:50;;;;;;;0.73;0.50;;;10.10;99.90;;;;;;5070788;28;20446;-77
2022/10/05 05:41:26;;;;;;;1.30;1.17;;;10.00;99.90;;;;;;5073643;28;20432;-77
2022/10/05 05:44:03;;;;;;;1.10;1.00;;;10.00;99.90;;;;;;5073781;28;20979;-77
2022/10/05 05:46:36;;;;;;;1.80;1.07;;;10.00;99.90;;;;;;5073271;28;20797;-77
2022/10/05 05:49:13;;;;;;;2.40;2.20;;;10.00;99.90;;;;;;5073286;28;20426;-77
2022/10/05 05:51:45;;;;;;;0.90;0.70;;;10.00;99.90;;;;;;5073527;28;20429;-77
2022/10/05 05:54:24;;;;;;;1.13;0.80;;;10.00;99.90;;;;;;5073389;28;20469;-77
2022/10/05 05:56:56;;;;;;;2.57;0.90;;;10.00;99.90;;;;;;5073472;28;20436;-77
2022/10/05 05:59:28;;;;;;;0.80;0.80;;;10.10;99.90;;;;;;5073408;28;20465;-77
2022/10/05 06:02:00;;;;;;;2.20;1.00;;;10.10;99.90;;;;;;5073442;28;20425;-77
2022/10/05 06:04:33;;;;;;;1.30;0.77;;;10.30;99.90;;;;;;5072931;28;20481;-78
2022/10/05 06:07:03;;;;;;;0.90;0.60;;;10.40;99.90;;;;;;5073108;28;20440;-77
2022/10/05 06:09:37;;;;;;;1.37;1.27;;;10.40;99.90;;;;;;5073305;28;20445;-77
2022/10/05 06:12:08;;;;;;;3.00;1.13;;;10.50;99.90;;;;;;5073336;28;20434;-77
2022/10/05 06:14:40;;;;;;;5.00;1.53;;;10.50;99.90;;;;;;5073236;28;20465;-77
2022/10/05 06:17:13;;;;;;;1.00;0.90;;;10.60;99.90;;;;;;5073264;28;20811;-77
2022/10/05 06:19:42;;;;;;;1.37;0.90;;;10.60;99.90;;;;;;5073179;28;20465;-77
2022/10/05 06:22:17;;;;;;;2.90;1.47;;;10.60;99.90;;;;;;5077039;28;20445;-77
2022/10/05 06:24:58;;;;;;;1.37;0.70;;;10.60;99.90;;;;;;5077286;28;20476;-77
2022/10/05 06:27:27;;;;;;;1.37;0.73;;;10.70;99.90;;;;;;5077312;28;20430;-77
2022/10/05 06:30:07;;;;;;;1.63;1.40;;;10.70;99.90;;;;;;5077211;28;20449;-77
2022/10/05 06:32:52;;;;;;;4.80;1.67;;;10.80;99.90;;;;;;5077205;28;20430;-77
2022/10/05 06:35:28;;;;;;;0.83;0.80;;;10.80;99.90;;;;;;5076764;28;21000;-77
2022/10/05 06:38:15;;;;;;;0.90;0.70;;;10.90;99.90;;;;;;5076768;28;20426;-77
2022/10/05 06:40:56;;;;;;;2.77;1.43;;;10.90;99.90;;;;;;5076625;28;20976;-77
2022/10/05 06:43:46;;;;;;;3.37;0.90;;;11.00;99.90;;;;;;5076550;28;20444;-77
2022/10/05 06:46:19;;;;;;;0.87;0.63;;;11.10;99.90;;;;;;5076909;28;20452;-77
2022/10/05 06:49:06;;;;;;;1.43;1.10;;;11.20;99.90;;;;;;5076866;28;20429;-77
2022/10/05 06:51:37;;;;;;;3.13;1.00;;;11.20;99.90;;;;;;5076485;28;20808;-77
2022/10/05 06:54:13;;;;;;;2.33;0.80;;;11.30;99.90;;;;;;5076319;28;20988;-77
2022/10/05 06:56:48;;;;;;;1.63;0.60;;;11.30;99.90;;;;;;5076681;28;20444;-77
2022/10/05 06:59:23;;;;;;;1.37;0.60;;;11.40;99.90;;;;;;5076558;28;20425;-78
2022/10/05 07:01:59;;;;;;;0.70;0.60;;;11.50;99.90;;;;;;5076570;28;20441;-78
2022/10/05 07:04:45;;;;;;;2.03;0.83;;;11.60;99.90;;;;;;5075999;28;20559;-78
2022/10/05 07:07:21;;;;;;;0.57;0.57;;;11.60;99.90;;;;;;5076504;28;20430;-78
2022/10/05 07:10:00;;;;;;;1.67;0.63;;;11.70;99.90;;;;;;5076365;28;20885;-78
2022/10/05 07:12:55;;;;;;;0.90;0.90;;;11.80;99.90;;;;;;5076502;28;20414;-79
2022/10/05 07:15:45;;;;;;;3.30;1.90;;;11.90;99.90;;;;;;5076749;28;20477;-76
2022/10/05 07:18:34;;;;;;;0.70;0.70;;;12.00;99.90;;;;;;5076653;28;20433;-79
2022/10/05 07:21:10;;;;;;;0.87;0.83;;;12.10;99.90;;;;;;5076111;28;20469;-80
2022/10/05 07:23:50;;;;;;;0.93;0.60;;;12.20;99.90;;;;;;5076114;28;20448;-81
2022/10/05 07:26:23;;;;;;;0.97;0.60;;;12.30;99.90;;;;;;5076164;28;20445;-81
2022/10/05 07:28:56;;;;;;;1.23;1.17;;;12.30;99.90;;;;;;5076050;28;20448;-81
2022/10/05 07:31:32;;;;;;;1.03;0.87;;;12.30;99.90;;;;;;5075798;28;20425;-81
2022/10/05 07:34:06;;;;;;;1.20;0.77;;;12.40;99.90;;;;;;5075741;28;20469;-81
2022/10/05 07:39:31;;;;;;;2.67;0.93;;;12.60;99.90;;;;;;5075671;28;20414;-81
2022/10/05 07:42:12;;;;;;;1.00;0.90;;;12.70;99.90;;;;;;5075821;28;20438;-81
2022/10/05 07:44:46;;;;;;;2.73;0.60;;;12.70;99.90;;;;;;5075421;28;20538;-81
2022/10/05 07:47:22;;;;;;;0.87;0.87;;;12.80;99.90;;;;;;5075792;28;20437;-76
2022/10/05 07:49:55;;;;;;;1.10;0.80;;;12.90;99.90;;;;;;5076006;28;20797;-76
2022/10/05 07:52:25;;;;;;;1.27;0.80;;;13.00;99.90;;;;;;5075400;28;20933;-76
2022/10/05 07:55:02;;;;;;;0.90;0.50;;;13.10;99.90;;;;;;5075292;28;20991;-76
2022/10/05 07:57:38;;;;;;;0.90;0.67;;;13.20;99.90;;;;;;5075586;28;20429;-76
2022/10/05 08:00:13;;;;;;;2.43;0.97;;;13.30;99.90;;;;;;5075505;28;20464;-76
2022/10/05 08:02:46;;;;;;;1.17;0.60;;;13.40;99.90;;;;;;5075205;28;20437;-77
2022/10/05 08:05:21;;;;;;;1.30;1.20;;;13.60;99.90;;;;;;5075376;28;20465;-76
2022/10/05 08:07:51;;;;;;;0.70;0.60;;;13.70;99.90;;;;;;5075338;28;20413;-89
2022/10/05 08:10:27;;;;;;;0.70;0.70;;;13.80;99.90;;;;;;5075449;28;20448;-86
2022/10/05 08:13:07;;;;;;;1.10;0.80;;;13.90;99.90;;;;;;5075823;28;20432;-88
2022/10/05 08:15:41;;;;;;;1.53;1.00;;;14.10;99.90;;;;;;5075719;28;20461;-86
2022/10/05 08:18:18;;;;;;;0.60;0.60;;;14.30;99.90;;;;;;5075353;28;20512;-87
2022/10/05 08:20:47;;;;;;;0.70;0.60;;;14.50;99.90;;;;;;5075273;28;20833;-85
2022/10/05 08:23:22;;;;;;;1.80;0.60;;;14.70;99.90;;;;;;5075175;28;20434;-86
2022/10/05 08:25:59;;;;;;;1.07;0.90;;;14.80;99.90;;;;;;5075176;28;20479;-85
2022/10/05 08:28:30;;;;;;;1.40;0.70;;;14.90;99.90;;;;;;5075087;28;20434;-86
2022/10/05 08:31:08;;;;;;;0.80;0.80;;;15.20;99.90;;;;;;5074937;28;20437;-85
2022/10/05 08:33:50;;;;;;;0.67;0.50;;;15.30;99.90;;;;;;5074569;28;20528;-86
2022/10/05 08:36:23;;;;;;;0.57;0.57;;;15.50;99.90;;;;;;5074769;28;20448;-82
2022/10/05 08:38:55;;;;;;;0.70;0.60;;;15.60;99.90;;;;;;5074604;28;20470;-82
2022/10/05 08:42:02;;;;;;;1.43;0.60;;;15.70;99.90;;;;;;5074132;28;20465;-82
2022/10/05 08:44:56;;;;;;;0.60;0.50;;;15.90;99.90;;;;;;5073302;28;20463;-82
2022/10/05 08:47:52;;;;;;;5.60;0.73;;;16.10;99.90;;;;;;5074422;28;20426;-82
2022/10/05 08:50:30;;;;;;;2.40;0.70;;;16.20;99.90;;;;;;5074005;28;20430;-82
2022/10/05 08:53:25;;;;;;;0.50;0.47;;;16.50;99.90;;;;;;5074157;28;20959;-82
2022/10/05 08:56:22;;;;;;;0.70;0.70;;;16.80;99.90;;;;;;5071646;28;20968;-77
2022/10/05 08:59:03;;;;;;;1.33;1.00;;;17.10;99.90;;;;;;5074315;28;20441;-76
2022/10/05 09:01:43;;;;;;;0.60;0.60;;;17.30;99.90;;;;;;5074217;28;20469;-77
2022/10/05 09:04:35;;;;;;;0.60;0.43;;;17.70;99.90;;;;;;5073990;28;20848;-76
2022/10/05 09:07:37;;;;;;;0.90;0.60;;;18.30;99.90;;;;;;5073903;28;20464;-79
2022/10/05 09:10:35;;;;;;;0.93;0.60;;;18.60;99.90;;;;;;5074143;28;20421;-76
2022/10/05 09:13:44;;;;;;;0.63;0.50;;;19.10;99.90;;;;;;5074071;28;20454;-76
2022/10/05 09:16:44;;;;;;;0.70;0.70;;;19.40;99.90;;;;;;5053409;28;20449;-76
2022/10/05 09:19:35;;;;;;;0.80;0.60;;;19.80;99.90;;;;;;5074083;28;20441;-76
2022/10/05 09:22:13;;;;;;;0.60;0.60;;;20.20;99.90;;;;;;5074155;28;20457;-76
2022/10/05 09:24:53;;;;;;;0.67;0.60;;;20.80;99.90;;;;;;5073853;28;20476;-76
2022/10/05 09:27:33;;;;;;;0.60;0.60;;;20.70;99.90;;;;;;5073892;28;20440;-76
2022/10/05 09:30:26;;;;;;;0.70;0.63;;;20.60;99.90;;;;;;5073780;28;20429;-76
2022/10/05 09:33:24;;;;;;;0.50;0.50;;;20.40;99.90;;;;;;5073440;28;20429;-77
2022/10/05 09:36:23;;;;;;;2.40;0.73;;;20.40;99.90;;;;;;5073735;28;20437;-76
2022/10/05 09:39:19;;;;;;;0.87;0.80;;;20.60;99.90;;;;;;5073430;28;20486;-77
2022/10/05 09:42:01;;;;;;;0.87;0.60;;;20.70;99.90;;;;;;5073591;28;20491;-77
2022/10/05 09:44:56;;;;;;;0.83;0.60;;;20.70;99.90;;;;;;5073597;28;20464;-77
2022/10/05 09:47:51;;;;;;;0.73;0.60;;;20.80;99.90;;;;;;5073333;28;20842;-79
2022/10/05 09:51:00;;;;;;;0.60;0.50;;;20.90;99.90;;;;;;5073202;28;20432;-79
2022/10/05 09:54:09;;;;;;;2.70;0.70;;;20.70;99.90;;;;;;5073463;28;20441;-79
2022/10/05 09:57:02;;;;;;;0.90;0.70;;;20.90;99.90;;;;;;5073383;28;20437;-79
2022/10/05 10:00:00;;;;;;;0.60;0.60;;;21.00;99.90;;;;;;5073146;28;20459;-80
2022/10/05 10:03:04;;;;;;;0.50;0.50;;;21.10;99.90;;;;;;5073416;28;20444;-80
2022/10/05 10:05:51;;;;;;;0.50;0.50;;;21.30;99.90;;;;;;5052746;28;21002;-80
2022/10/05 10:08:35;;;;;;;0.73;0.70;;;21.30;99.90;;;;;;5073375;28;20472;-79
2022/10/05 10:11:25;;;;;;;0.90;0.83;;;21.50;99.90;;;;;;5073296;28;20781;-80
2022/10/05 10:14:05;;;;;;;1.00;0.60;;;21.60;99.90;;;;;;5063013;28;20485;-80
2022/10/05 10:17:11;;;;;;;0.50;0.50;;;21.90;99.90;;;;;;5073263;28;20434;-80
2022/10/05 10:20:02;;;;;;;0.60;0.60;;;21.90;99.90;;;;;;5037028;28;20448;-80
2022/10/05 10:23:00;;;;;;;0.70;0.70;;;22.30;99.90;;;;;;5073253;28;20429;-80
2022/10/05 10:25:52;;;;;;;1.40;1.20;;;22.60;99.90;;;;;;5051848;28;20473;-80
2022/10/05 10:28:47;;;;;;;0.60;0.60;;;22.90;99.90;;;;;;5073293;28;20437;-80
2022/10/05 10:31:37;;;;;;;1.37;0.93;;;23.50;99.90;;;;;;5073143;28;20429;-80
2022/10/05 10:34:19;;;;;;;0.50;0.50;;;24.30;99.90;;;;;;5073312;28;20314;-80
2022/10/05 10:37:02;;;;;;;0.60;0.60;;;25.30;99.90;;;;;;5073121;28;20206;-80
2022/10/05 10:39:47;;;;;;;2.88;0.93;;;25.70;99.90;;;;;;5073098;28;20187;-80
2022/10/05 10:42:39;;;;;;;0.90;0.90;;;26.40;99.90;;;;;;5072969;28;20218;-80
2022/10/05 10:45:22;;;;;;;0.65;0.65;;;26.60;99.90;;;;;;5072561;28;20219;-79
2022/10/05 10:48:00;;;;;;;0.70;0.70;;;26.50;99.90;;;;;;5072578;28;20198;-80
2022/10/05 10:51:03;;;;;;;0.70;0.68;;;26.10;99.90;;;;;;5073114;28;20201;-80
2022/10/05 10:54:19;;;;;;;0.90;0.90;;;25.70;99.90;;;;;;5073059;28;20281;-81
2022/10/05 10:56:56;;;;;;;0.70;0.70;;;24.90;99.90;;;;;;5027372;28;20207;-81
2022/10/05 10:59:53;;;;;;;0.80;0.80;;;24.00;99.90;;;;;;5072912;28;20194;-80
2022/10/05 11:02:51;;;;;;;1.08;0.90;;;23.10;99.90;;;;;;5072381;28;20215;-81
2022/10/05 11:05:30;;;;;;;1.38;0.80;;;22.70;99.90;;;;;;5072711;28;20296;-80
2022/10/05 11:08:12;;;;;;;0.90;0.90;;;22.40;99.90;;;;;;5074456;28;20650;-80
2022/10/05 11:11:05;;;;;;;3.23;1.00;;;22.10;99.90;;;;;;5076380;28;20187;-81
2022/10/05 11:14:01;;;;;;;0.70;0.70;;;21.90;99.90;;;;;;5076312;28;20198;-80
2022/10/05 11:17:16;;;;;;;1.33;0.80;;;21.70;99.90;;;;;;5054342;28;20678;-80
2022/10/05 11:19:50;;;;;;;3.63;1.00;;;21.80;99.90;;;;;;5076017;28;20421;-80
2022/10/05 11:22:33;;;;;;;1.57;0.87;;;21.70;99.90;;;;;;5076945;28;20469;-79
2022/10/05 11:25:19;;;;;;;1.10;1.07;;;21.60;99.90;;;;;;5076374;28;20498;-80
2022/10/05 11:28:19;;;;;;;0.67;0.67;;;21.60;99.90;;;;;;5076172;28;20437;-80
2022/10/05 11:31:35;;;;;;;0.83;0.80;;;21.50;99.90;;;;;;5076159;28;20432;-80
2022/10/05 11:34:50;;;;;;;1.07;0.80;;;21.50;99.90;;;;;;5075925;28;20449;-80
2022/10/05 11:37:44;;;;;;;0.80;0.60;;;21.50;99.90;;;;;;5013842;28;20967;-80
2022/10/05 11:40:49;;;;;;;4.63;0.90;;;21.40;99.90;;;;;;5072414;28;20452;-80
2022/10/05 11:43:51;;;;;;;1.23;0.80;;;21.30;99.90;;;;;;5075882;28;20433;-80
2022/10/05 11:46:25;;;;;;;1.03;0.80;;;21.30;99.90;;;;;;5075645;28;20908;-80
2022/10/05 11:49:26;;;;;;;0.73;0.70;;;21.30;99.90;;;;;;5075824;28;20440;-80
2022/10/05 11:52:05;;;;;;;0.60;0.60;;;21.30;99.90;;;;;;5075745;28;20435;-80
2022/10/05 11:55:01;;;;;;;0.60;0.50;;;21.30;99.90;;;;;;5075585;28;20472;-80
2022/10/05 11:57:36;;;;;;;0.70;0.50;;;21.40;99.90;;;;;;5075919;28;20405;-80
2022/10/05 12:00:11;;;;;;;0.70;0.70;;;21.40;99.90;;;;;;5075282;28;20531;-80
2022/10/05 12:03:00;;;;;;;1.13;0.60;;;21.40;99.90;;;;;;5075216;28;20526;-80
2022/10/05 12:05:32;;;;;;;0.63;0.60;;;21.40;99.90;;;;;;5075420;28;20469;-86
2022/10/05 12:08:18;;;;;;;0.87;0.70;;;21.40;99.90;;;;;;5075196;28;20925;-76
2022/10/05 12:10:55;;;;;;;0.60;0.60;;;21.40;99.90;;;;;;5075399;28;20436;-76
2022/10/05 12:13:34;;;;;;;1.17;0.73;;;21.40;99.90;;;;;;5075281;28;20437;-76
2022/10/05 12:16:08;;;;;;;0.70;0.60;;;21.30;99.90;;;;;;5074998;28;20904;-78
2022/10/05 12:18:55;;;;;;;0.63;0.63;;;21.30;99.90;;;;;;5075107;28;20807;-76
2022/10/05 12:21:31;;;;;;;0.70;0.70;;;21.20;99.90;;;;;;5075117;28;20469;-77
2022/10/05 12:24:04;;;;;;;0.60;0.50;;;21.10;99.90;;;;;;5075102;28;20464;-77
2022/10/05 12:26:36;;;;;;;1.10;0.50;;;21.10;99.90;;;;;;5075243;28;20437;-77
2022/10/05 12:29:12;;;;;;;0.70;0.60;;;21.10;99.90;;;;;;5075067;28;20859;-77
2022/10/05 12:31:46;;;;;;;0.50;0.50;;;21.00;99.90;;;;;;5074934;28;20425;-77
2022/10/05 12:34:24;;;;;;;0.70;0.60;;;21.00;99.90;;;;;;5074855;28;20465;-77
2022/10/05 12:36:54;;;;;;;0.80;0.60;;;21.00;99.90;;;;;;5074878;28;20429;-77
2022/10/05 12:39:26;;;;;;;0.50;0.50;;;20.90;99.90;;;;;;5075076;28;20432;-78
2022/10/05 12:42:04;;;;;;;0.50;0.50;;;21.00;99.90;;;;;;5074710;28;20534;-77
2022/10/05 12:44:49;;;;;;;0.40;0.40;;;20.90;99.90;;;;;;5074323;28;20472;-77
2022/10/05 12:47:24;;;;;;;0.40;0.40;;;20.90;99.90;;;;;;5074834;28;20482;-77
2022/10/05 12:50:12;;;;;;;0.50;0.50;;;20.90;99.90;;;;;;5074649;28;20881;-77
2022/10/05 12:52:50;;;;;;;0.80;0.50;;;20.80;99.90;;;;;;5074268;28;20433;-77
2022/10/05 12:55:25;;;;;;;0.83;0.50;;;20.80;99.90;;;;;;5074414;28;20471;-77
2022/10/05 12:58:04;;;;;;;0.50;0.43;;;20.70;99.90;;;;;;5074435;28;20437;-77
2022/10/05 13:00:37;;;;;;;0.50;0.50;;;20.70;99.90;;;;;;5074348;28;20437;-77
2022/10/05 13:03:13;;;;;;;0.43;0.43;;;20.70;99.90;;;;;;5074003;28;20538;-77
2022/10/05 13:05:45;;;;;;;0.80;0.40;;;20.60;99.90;;;;;;5074251;28;20471;-77
2022/10/05 13:08:22;;;;;;;0.40;0.40;;;20.60;99.90;;;;;;5074668;28;20441;-77
2022/10/05 13:10:53;;;;;;;0.50;0.40;;;20.60;99.90;;;;;;5074196;28;20436;-78
2022/10/05 13:13:43;;;;;;;0.40;0.40;;;20.50;99.90;;;;;;5074264;28;20472;-77
2022/10/05 13:16:21;;;;;;;0.40;0.40;;;20.50;99.90;;;;;;5074495;28;20798;-78
2022/10/05 13:18:58;;;;;;;0.67;0.40;;;20.50;99.90;;;;;;5074322;28;20425;-77
2022/10/05 13:21:34;;;;;;;0.40;0.40;;;20.50;99.90;;;;;;5073684;28;20975;-77
2022/10/05 13:24:07;;;;;;;0.87;0.40;;;20.50;99.90;;;;;;5073899;28;20471;-78
2022/10/05 13:26:37;;;;;;;1.60;0.50;;;20.50;99.90;;;;;;5073654;28;20438;-78
2022/10/05 13:29:15;;;;;;;1.57;0.50;;;20.50;99.90;;;;;;5073922;28;20446;-78
2022/10/05 13:31:46;;;;;;;0.60;0.40;;;20.40;99.90;;;;;;5073333;28;20432;-77
2022/10/05 13:34:25;;;;;;;0.40;0.40;;;20.50;99.90;;;;;;5073741;28;20514;-77
2022/10/05 13:37:12;;;;;;;0.53;0.40;;;20.50;99.90;;;;;;5073834;28;20417;-78
2022/10/05 13:39:56;;;;;;;1.80;0.40;;;20.50;99.90;;;;;;5074445;28;20439;-81
2022/10/05 13:42:32;;;;;;;0.40;0.40;;;20.40;99.90;;;;;;5073917;28;20964;-80
2022/10/05 13:45:10;;;;;;;0.40;0.40;;;20.40;99.90;;;;;;5073251;28;20980;-77
2022/10/05 13:47:48;;;;;;;0.43;0.43;;;20.40;99.90;;;;;;5073670;28;20433;-77
2022/10/05 13:50:20;;;;;;;0.50;0.50;;;20.40;99.90;;;;;;5074061;28;20438;-78
2022/10/05 13:52:56;;;;;;;0.40;0.40;;;20.40;99.90;;;;;;5073597;28;20791;-78
2022/10/05 13:55:39;;;;;;;1.10;0.40;;;20.30;99.90;;;;;;5073306;28;20976;-78